createdAt,value
2022-12-31T00:02:19.390Z,100.00
2022-12-31T00:04:45.945Z,100.00
2022-12-31T00:07:12.356Z,100.00
2022-12-31T00:09:38.921Z,100.00
2022-12-31T00:12:05.798Z,100.00
2022-12-31T00:14:32.314Z,100.00
2022-12-31T00:16:58.824Z,100.00
2022-12-31T00:19:25.355Z,100.00
2022-12-31T00:21:51.821Z,100.00
2022-12-31T00:24:18.327Z,100.00
2022-12-31T00:26:44.754Z,100.00
2022-12-31T00:29:11.339Z,100.00
2022-12-31T00:31:38.491Z,100.00
2022-12-31T00:34:05.949Z,100.00
2022-12-31T00:36:35.556Z,100.00
2022-12-31T00:39:04.686Z,100.00
2022-12-31T00:41:31.276Z,100.00
2022-12-31T00:43:58.100Z,100.00
2022-12-31T00:46:25.198Z,100.00
2022-12-31T00:48:52.073Z,100.00
2022-12-31T00:51:22.031Z,100.00
2022-12-31T00:53:48.848Z,100.00
2022-12-31T00:56:20.900Z,100.00
2022-12-31T00:58:48.192Z,100.00
2022-12-31T01:01:21.233Z,100.00
2022-12-31T01:03:49.757Z,100.00
2022-12-31T01:06:17.397Z,100.00
2022-12-31T01:08:44.565Z,100.00
2022-12-31T01:11:29.029Z,100.00
2022-12-31T01:13:59.786Z,100.00
2022-12-31T01:16:32.381Z,100.00
2022-12-31T01:19:01.315Z,100.00
2022-12-31T01:21:29.129Z,100.00
2022-12-31T01:23:55.798Z,100.00
2022-12-31T01:26:22.320Z,100.00
2022-12-31T01:28:48.846Z,100.00
2022-12-31T01:31:17.627Z,100.00
2022-12-31T01:33:44.912Z,100.00
2022-12-31T01:36:17.833Z,100.00
2022-12-31T01:38:48.602Z,100.00
2022-12-31T01:41:18.595Z,100.00
2022-12-31T01:44:00.125Z,100.00
2022-12-31T01:46:35.553Z,100.00
2022-12-31T01:49:31.618Z,100.00
2022-12-31T01:52:04.555Z,100.00
2022-12-31T01:54:36.696Z,100.00
2022-12-31T01:57:05.301Z,100.00
2022-12-31T01:59:33.677Z,100.00
2022-12-31T02:02:01.497Z,100.00
2022-12-31T02:04:29.180Z,100.00
2022-12-31T02:07:09.297Z,100.00
2022-12-31T02:09:40.401Z,100.00
2022-12-31T02:12:08.971Z,100.00
2022-12-31T02:14:40.448Z,100.00
2022-12-31T02:17:34.033Z,100.00
2022-12-31T02:20:22.168Z,100.00
2022-12-31T02:23:09.759Z,100.00
2022-12-31T02:26:00.535Z,100.00
2022-12-31T02:28:57.100Z,100.00
2022-12-31T02:31:32.441Z,100.00
2022-12-31T02:34:11.688Z,100.00
2022-12-31T02:36:42.661Z,100.00
2022-12-31T02:39:11.774Z,100.00
2022-12-31T02:41:50.095Z,100.00
2022-12-31T02:44:33.251Z,100.00
2022-12-31T02:47:08.844Z,100.00
2022-12-31T02:49:55.639Z,100.00
2022-12-31T02:52:31.572Z,100.00
2022-12-31T02:55:25.907Z,100.00
2022-12-31T02:58:13.786Z,100.00
2022-12-31T03:01:10.421Z,100.00
2022-12-31T03:03:38.225Z,100.00
2022-12-31T03:06:08.219Z,100.00
2022-12-31T03:08:54.856Z,100.00
2022-12-31T03:11:39.964Z,100.00
2022-12-31T03:14:06.475Z,100.00
2022-12-31T03:16:34.068Z,100.00
2022-12-31T03:19:19.013Z,100.00
2022-12-31T03:22:04.265Z,100.00
2022-12-31T03:24:49.425Z,100.00
2022-12-31T03:27:18.216Z,100.00
2022-12-31T03:29:45.401Z,100.00
2022-12-31T03:32:12.240Z,100.00
2022-12-31T03:34:38.788Z,100.00
2022-12-31T03:37:05.254Z,100.00
2022-12-31T03:39:31.790Z,100.00
2022-12-31T03:41:58.715Z,100.00
2022-12-31T03:44:25.167Z,100.00
2022-12-31T03:46:51.743Z,100.00
2022-12-31T03:49:18.197Z,100.00
2022-12-31T03:51:44.663Z,100.00
2022-12-31T03:54:11.134Z,100.00
2022-12-31T03:56:37.701Z,100.00
2022-12-31T03:59:04.236Z,100.00
2022-12-31T04:01:32.501Z,100.00
2022-12-31T04:03:59.179Z,100.00
2022-12-31T04:06:25.614Z,100.00
2022-12-31T04:08:52.140Z,100.00
2022-12-31T04:11:20.984Z,100.00
2022-12-31T04:13:47.702Z,100.00
2022-12-31T04:16:14.153Z,100.00
2022-12-31T04:18:40.669Z,100.00
2022-12-31T04:21:07.239Z,100.00
2022-12-31T04:23:33.745Z,100.00
2022-12-31T04:26:00.223Z,100.00
2022-12-31T04:28:26.867Z,100.00
2022-12-31T04:30:53.399Z,100.00
2022-12-31T04:33:19.824Z,100.00
2022-12-31T04:35:46.319Z,100.00
2022-12-31T04:38:12.787Z,100.00
2022-12-31T04:40:59.296Z,100.00
2022-12-31T04:43:25.805Z,100.00
2022-12-31T04:45:52.342Z,100.00
2022-12-31T04:48:18.953Z,100.00
2022-12-31T04:50:46.416Z,100.00
2022-12-31T04:53:13.088Z,100.00
2022-12-31T04:55:41.489Z,100.00
2022-12-31T04:58:08.115Z,100.00
2022-12-31T05:00:34.698Z,100.00
2022-12-31T05:03:01.203Z,100.00
2022-12-31T05:05:27.731Z,100.00
2022-12-31T05:07:54.277Z,100.00
2022-12-31T05:10:20.881Z,100.00
2022-12-31T05:12:47.386Z,100.00
2022-12-31T05:15:14.627Z,100.00
2022-12-31T05:17:44.041Z,100.00
2022-12-31T05:20:11.573Z,100.00
2022-12-31T05:22:38.094Z,100.00
2022-12-31T05:25:05.335Z,100.00
2022-12-31T05:27:32.010Z,100.00
2022-12-31T05:29:59.077Z,100.00
2022-12-31T05:32:25.962Z,100.00
2022-12-31T05:34:53.621Z,100.00
2022-12-31T05:37:20.143Z,100.00
2022-12-31T05:39:46.853Z,100.00
2022-12-31T05:42:13.306Z,100.00
2022-12-31T05:44:40.215Z,100.00
2022-12-31T05:47:07.087Z,100.00
2022-12-31T05:49:33.625Z,100.00
2022-12-31T05:52:00.410Z,100.00
2022-12-31T05:54:26.949Z,100.00
2022-12-31T05:56:53.350Z,100.00
2022-12-31T05:59:20.043Z,100.00
2022-12-31T06:01:47.851Z,100.00
2022-12-31T06:04:14.371Z,100.00
2022-12-31T06:06:40.805Z,100.00
2022-12-31T06:09:07.349Z,100.00
2022-12-31T06:11:33.772Z,100.00
2022-12-31T06:14:00.357Z,100.00
2022-12-31T06:16:27.240Z,100.00
2022-12-31T06:18:54.351Z,100.00
2022-12-31T06:21:21.687Z,100.00
2022-12-31T06:23:48.768Z,100.00
2022-12-31T06:26:16.352Z,100.00
2022-12-31T06:28:42.847Z,100.00
2022-12-31T06:31:11.634Z,100.00
2022-12-31T06:33:38.335Z,100.00
2022-12-31T06:36:08.017Z,100.00
2022-12-31T06:38:38.117Z,100.00
2022-12-31T06:41:06.089Z,100.00
2022-12-31T06:43:33.730Z,100.00
2022-12-31T06:46:02.081Z,100.00
2022-12-31T06:48:28.648Z,100.00
2022-12-31T06:50:55.077Z,100.00
2022-12-31T06:53:22.296Z,100.00
2022-12-31T06:55:49.530Z,100.00
2022-12-31T06:58:16.728Z,100.00
2022-12-31T07:00:56.051Z,100.00
2022-12-31T07:03:49.183Z,100.00
2022-12-31T07:06:19.916Z,100.00
2022-12-31T07:09:02.370Z,100.00
2022-12-31T07:11:56.477Z,100.00
2022-12-31T07:14:37.242Z,100.00
2022-12-31T07:17:25.003Z,100.00
2022-12-31T07:20:05.286Z,100.00
2022-12-31T07:22:32.131Z,100.00
2022-12-31T07:24:59.207Z,100.00
2022-12-31T07:27:45.483Z,100.00
2022-12-31T07:30:19.864Z,100.00
2022-12-31T07:33:17.129Z,100.00
2022-12-31T07:36:03.942Z,100.00
2022-12-31T07:39:01.486Z,100.00
2022-12-31T07:41:41.175Z,100.00
2022-12-31T07:44:47.970Z,100.00
2022-12-31T07:47:34.896Z,100.00
2022-12-31T07:50:02.499Z,100.00
2022-12-31T07:52:29.381Z,100.00
2022-12-31T07:54:55.838Z,100.00
2022-12-31T07:57:27.303Z,100.00
2022-12-31T08:00:08.081Z,100.00
2022-12-31T08:03:01.809Z,100.00
2022-12-31T08:05:34.289Z,100.00
2022-12-31T08:08:31.443Z,100.00
2022-12-31T08:11:18.661Z,100.00
2022-12-31T08:13:45.779Z,100.00
2022-12-31T08:16:13.447Z,100.00
2022-12-31T08:18:40.957Z,100.00
2022-12-31T08:21:14.237Z,100.00
2022-12-31T08:23:55.849Z,100.00
2022-12-31T08:26:40.883Z,100.00
2022-12-31T08:29:29.141Z,97.90
2022-12-31T08:32:18.319Z,100.00
2022-12-31T08:34:58.459Z,98.10
2022-12-31T08:37:39.849Z,96.96
2022-12-31T08:40:30.506Z,98.67
2022-12-31T08:43:23.562Z,97.86
2022-12-31T08:45:53.213Z,100.00
2022-12-31T08:48:31.716Z,99.38
2022-12-31T08:50:58.691Z,98.08
2022-12-31T08:53:26.011Z,99.24
2022-12-31T08:55:59.503Z,100.00
2022-12-31T08:58:49.048Z,98.09
2022-12-31T09:01:22.172Z,96.88
2022-12-31T09:03:57.828Z,97.71
2022-12-31T09:06:36.076Z,98.21
2022-12-31T09:09:30.168Z,98.29
2022-12-31T09:12:24.714Z,96.42
2022-12-31T09:15:13.129Z,95.90
2022-12-31T09:17:39.624Z,95.20
2022-12-31T09:20:06.371Z,94.12
2022-12-31T09:22:33.070Z,93.16
2022-12-31T09:25:00.012Z,94.88
2022-12-31T09:27:37.857Z,94.35
2022-12-31T09:30:11.690Z,93.12
2022-12-31T09:33:12.512Z,92.39
2022-12-31T09:35:50.378Z,91.20
2022-12-31T09:38:20.526Z,89.94
2022-12-31T09:41:12.499Z,90.32
2022-12-31T09:44:26.603Z,92.05
2022-12-31T09:47:11.418Z,90.75
2022-12-31T09:50:08.569Z,88.47
2022-12-31T09:52:47.239Z,90.01
2022-12-31T09:55:48.420Z,89.71
2022-12-31T09:58:38.701Z,90.35
2022-12-31T10:01:31.090Z,89.57
2022-12-31T10:04:34.668Z,91.73
2022-12-31T10:07:13.313Z,90.56
2022-12-31T10:10:02.310Z,91.45
2022-12-31T10:12:50.181Z,89.21
2022-12-31T10:16:06.064Z,86.67
2022-12-31T10:19:00.164Z,85.88
2022-12-31T10:22:14.530Z,85.99
2022-12-31T10:24:56.957Z,85.64
2022-12-31T10:27:38.466Z,78.93
2022-12-31T10:30:18.492Z,82.41
2022-12-31T10:32:45.018Z,85.10
2022-12-31T10:35:19.539Z,83.69
2022-12-31T10:37:59.540Z,85.53
2022-12-31T10:41:04.641Z,83.11
2022-12-31T10:44:03.951Z,82.96
2022-12-31T10:46:54.808Z,84.25
2022-12-31T10:50:03.927Z,81.56
2022-12-31T10:53:01.049Z,81.86
2022-12-31T10:55:40.093Z,79.84
2022-12-31T10:58:44.423Z,80.62
2022-12-31T11:01:30.683Z,80.19
2022-12-31T11:04:24.645Z,80.51
2022-12-31T11:07:00.257Z,80.73
2022-12-31T11:09:51.403Z,79.45
2022-12-31T11:12:17.881Z,80.65
2022-12-31T11:14:50.913Z,82.46
2022-12-31T11:33:21.017Z,82.23
2022-12-31T11:36:05.715Z,81.73
2022-12-31T11:38:40.679Z,79.54
2022-12-31T11:41:39.624Z,81.14
2022-12-31T11:44:19.598Z,80.21
2022-12-31T11:47:04.591Z,82.43
2022-12-31T11:49:55.338Z,80.97
2022-12-31T11:52:39.661Z,82.04
2022-12-31T11:55:24.270Z,78.38
2022-12-31T11:57:51.928Z,77.67
2022-12-31T12:00:25.750Z,78.86
2022-12-31T12:03:02.392Z,81.81
2022-12-31T12:05:30.057Z,81.66
2022-12-31T12:07:57.134Z,81.40
2022-12-31T12:10:41.995Z,82.07
2022-12-31T12:13:13.641Z,80.76
2022-12-31T12:15:44.708Z,81.01
2022-12-31T12:18:24.524Z,82.30
2022-12-31T12:20:51.276Z,78.90
2022-12-31T12:23:24.789Z,79.15
2022-12-31T12:25:51.835Z,80.55
2022-12-31T12:28:18.338Z,81.27
2022-12-31T12:30:46.271Z,81.15
2022-12-31T12:33:18.332Z,81.37
2022-12-31T12:35:45.506Z,82.06
2022-12-31T12:38:21.388Z,79.85
2022-12-31T12:41:00.265Z,80.12
2022-12-31T12:43:30.135Z,81.88
2022-12-31T12:46:23.103Z,82.67
2022-12-31T12:48:56.039Z,80.73
2022-12-31T12:51:47.744Z,80.37
2022-12-31T12:54:32.534Z,81.10
2022-12-31T12:57:15.899Z,81.46
2022-12-31T13:00:04.616Z,80.07
2022-12-31T13:02:37.175Z,79.76
2022-12-31T13:05:21.673Z,81.19
2022-12-31T13:08:30.292Z,80.16
2022-12-31T13:11:26.573Z,81.08
2022-12-31T13:14:23.612Z,80.51
2022-12-31T13:16:55.368Z,81.09
2022-12-31T13:19:30.701Z,80.22
2022-12-31T13:22:12.562Z,78.45
2022-12-31T13:25:06.665Z,80.32
2022-12-31T13:27:43.882Z,82.14
2022-12-31T13:30:19.492Z,83.14
2022-12-31T13:33:01.217Z,82.09
2022-12-31T13:35:38.195Z,83.55
2022-12-31T13:38:28.449Z,84.49
2022-12-31T13:41:01.755Z,86.45
2022-12-31T13:43:47.315Z,88.04
2022-12-31T13:46:52.697Z,89.03
2022-12-31T13:49:25.116Z,88.96
2022-12-31T13:51:59.590Z,88.12
2022-12-31T13:54:38.421Z,89.75
2022-12-31T13:57:16.946Z,85.21
2022-12-31T13:59:48.573Z,85.30
2022-12-31T14:02:40.548Z,82.25
2022-12-31T14:05:19.967Z,83.77
2022-12-31T14:07:52.594Z,84.19
2022-12-31T14:10:27.723Z,83.67
2022-12-31T14:13:10.805Z,82.92
2022-12-31T14:16:15.965Z,81.57
2022-12-31T14:18:50.724Z,82.62
2022-12-31T14:21:23.747Z,84.06
2022-12-31T14:24:05.233Z,82.69
2022-12-31T14:26:36.057Z,85.12
2022-12-31T14:29:31.353Z,82.65
2022-12-31T14:32:19.602Z,83.39
2022-12-31T14:35:23.996Z,84.87
2022-12-31T14:37:59.380Z,83.89
2022-12-31T14:40:41.689Z,83.51
2022-12-31T14:43:38.233Z,85.52
2022-12-31T14:46:42.706Z,84.70
2022-12-31T14:49:18.209Z,87.69
2022-12-31T14:51:44.974Z,88.98
2022-12-31T14:54:28.969Z,89.32
2022-12-31T14:56:55.881Z,89.92
2022-12-31T14:59:28.298Z,91.60
2022-12-31T15:01:56.939Z,92.39
2022-12-31T15:04:32.726Z,91.53
2022-12-31T15:07:25.438Z,92.85
2022-12-31T15:10:44.700Z,94.14
2022-12-31T15:13:19.496Z,94.88
2022-12-31T15:16:11.598Z,96.50
2022-12-31T15:18:50.955Z,96.12
2022-12-31T15:21:44.937Z,97.64
2022-12-31T15:24:24.183Z,97.26
2022-12-31T15:27:32.350Z,97.73
2022-12-31T15:30:00.884Z,99.69
2022-12-31T15:32:42.612Z,99.98
2022-12-31T15:35:21.502Z,100.00
2022-12-31T15:38:19.274Z,100.00
2022-12-31T15:40:51.639Z,100.00
2022-12-31T15:43:24.343Z,99.79
2022-12-31T15:45:56.030Z,100.00
2022-12-31T15:48:31.211Z,100.00
2022-12-31T15:51:00.480Z,100.00
2022-12-31T15:53:32.230Z,100.00
2022-12-31T15:56:00.646Z,100.00
2022-12-31T15:58:31.627Z,100.00
2022-12-31T16:01:15.742Z,100.00
2022-12-31T16:03:46.330Z,100.00
2022-12-31T16:06:15.353Z,100.00
2022-12-31T16:08:47.041Z,100.00
2022-12-31T16:11:14.784Z,100.00
2022-12-31T16:13:45.697Z,100.00
2022-12-31T16:16:24.897Z,100.00
2022-12-31T16:18:53.079Z,100.00
2022-12-31T16:21:37.407Z,100.00
2022-12-31T16:24:06.010Z,100.00
2022-12-31T16:26:54.690Z,100.00
2022-12-31T16:29:23.982Z,100.00
2022-12-31T16:31:55.629Z,100.00
2022-12-31T16:34:27.875Z,100.00
2022-12-31T16:37:02.511Z,100.00
2022-12-31T16:39:34.179Z,100.00
2022-12-31T16:42:14.804Z,100.00
2022-12-31T16:44:41.985Z,100.00
2022-12-31T16:47:13.918Z,100.00
2022-12-31T16:49:41.598Z,100.00
2022-12-31T16:52:24.265Z,100.00
2022-12-31T16:54:51.310Z,100.00
2022-12-31T16:57:22.543Z,100.00
2022-12-31T16:59:54.575Z,100.00
2022-12-31T17:02:27.642Z,100.00
2022-12-31T17:04:56.438Z,100.00
2022-12-31T17:07:32.312Z,100.00
2022-12-31T17:10:24.448Z,100.00
2022-12-31T17:15:44.974Z,100.00
2022-12-31T17:18:19.387Z,100.00
2022-12-31T17:20:46.896Z,100.00
2022-12-31T17:23:31.809Z,100.00
2022-12-31T17:26:01.035Z,100.00
2022-12-31T17:28:37.669Z,100.00
2022-12-31T17:31:29.000Z,100.00
2022-12-31T17:34:13.179Z,100.00
2022-12-31T17:37:00.375Z,100.00
2022-12-31T17:39:39.449Z,100.00
2022-12-31T17:42:09.702Z,100.00
2022-12-31T17:44:39.403Z,100.00
2022-12-31T17:47:08.386Z,100.00
2022-12-31T17:49:36.559Z,100.00
2022-12-31T17:52:03.300Z,100.00
2022-12-31T17:54:29.868Z,100.00
2022-12-31T17:56:57.564Z,100.00
2022-12-31T17:59:25.695Z,100.00
2022-12-31T18:01:52.495Z,100.00
2022-12-31T18:04:20.756Z,100.00
2022-12-31T18:06:47.263Z,100.00
2022-12-31T18:09:14.237Z,100.00
2022-12-31T18:11:41.266Z,100.00
2022-12-31T18:14:08.228Z,100.00
2022-12-31T18:16:34.799Z,100.00
2022-12-31T18:19:01.582Z,100.00
2022-12-31T18:21:32.588Z,100.00
2022-12-31T18:26:27.986Z,100.00
2022-12-31T18:28:54.798Z,100.00
2022-12-31T18:31:24.675Z,100.00
2022-12-31T18:33:52.553Z,100.00
2022-12-31T18:36:21.441Z,100.00
2022-12-31T18:38:48.531Z,100.00
2022-12-31T18:41:21.424Z,100.00
2022-12-31T18:43:48.591Z,100.00
2022-12-31T18:46:18.183Z,100.00
2022-12-31T18:48:45.060Z,100.00
2022-12-31T18:51:17.028Z,100.00
2022-12-31T18:53:43.859Z,100.00
2022-12-31T18:56:13.276Z,100.00
2022-12-31T18:58:40.780Z,100.00
2022-12-31T19:01:31.703Z,100.00
2022-12-31T19:04:27.624Z,100.00
2022-12-31T19:06:56.007Z,100.00
2022-12-31T19:09:44.767Z,100.00
2022-12-31T19:12:14.303Z,100.00
2022-12-31T19:14:41.007Z,100.00
2022-12-31T19:19:34.650Z,100.00
2022-12-31T19:22:01.594Z,100.00
2022-12-31T19:24:28.521Z,100.00
2022-12-31T19:26:55.162Z,100.00
2022-12-31T19:29:27.305Z,100.00
2022-12-31T19:31:54.255Z,100.00
2022-12-31T19:34:21.150Z,100.00
2022-12-31T19:36:47.746Z,100.00
2022-12-31T19:39:17.417Z,100.00
2022-12-31T19:41:44.801Z,100.00
2022-12-31T19:44:16.503Z,100.00
2022-12-31T19:46:43.102Z,100.00
2022-12-31T19:49:13.916Z,100.00
2022-12-31T19:51:40.770Z,100.00
2022-12-31T19:54:07.712Z,100.00
2022-12-31T19:56:34.388Z,100.00
2022-12-31T19:59:09.415Z,100.00
2022-12-31T20:01:36.140Z,100.00
2022-12-31T20:04:02.780Z,100.00
2022-12-31T20:06:29.271Z,100.00
2022-12-31T20:08:55.927Z,100.00
2022-12-31T20:11:24.143Z,100.00
2022-12-31T20:13:52.386Z,100.00
2022-12-31T20:16:21.075Z,100.00
2022-12-31T20:18:48.027Z,100.00
2022-12-31T20:21:20.866Z,100.00
2022-12-31T20:23:48.997Z,100.00
2022-12-31T20:26:15.893Z,100.00
2022-12-31T20:28:42.501Z,100.00
2022-12-31T20:31:11.836Z,100.00
2022-12-31T20:33:38.447Z,100.00
2022-12-31T20:36:06.845Z,100.00
2022-12-31T20:38:33.725Z,100.00
2022-12-31T20:41:08.831Z,100.00
2022-12-31T20:43:36.136Z,100.00
2022-12-31T20:46:14.056Z,100.00
2022-12-31T20:48:41.437Z,100.00
2022-12-31T20:51:08.118Z,100.00
2022-12-31T20:53:34.603Z,100.00
2022-12-31T20:56:08.315Z,100.00
2022-12-31T20:58:35.005Z,100.00
2022-12-31T21:01:06.744Z,100.00
2022-12-31T21:06:22.932Z,100.00
2022-12-31T21:08:49.704Z,100.00
2022-12-31T21:11:35.071Z,100.00
2022-12-31T21:14:02.193Z,100.00
2022-12-31T21:16:28.826Z,100.00
2022-12-31T21:18:55.860Z,100.00
2022-12-31T21:21:22.511Z,100.00
2022-12-31T21:23:49.279Z,100.00
2022-12-31T21:26:15.810Z,100.00
2022-12-31T21:28:42.257Z,100.00
2022-12-31T21:31:11.589Z,100.00
2022-12-31T21:33:38.524Z,100.00
2022-12-31T21:36:05.319Z,100.00
2022-12-31T21:38:32.035Z,100.00
2022-12-31T21:41:03.528Z,100.00
2022-12-31T21:43:30.305Z,100.00
2022-12-31T21:46:07.343Z,100.00
2022-12-31T21:48:34.367Z,100.00
2022-12-31T21:51:09.733Z,100.00
2022-12-31T21:53:37.506Z,100.00
2022-12-31T21:56:16.120Z,100.00
2022-12-31T21:59:08.556Z,100.00
2022-12-31T22:01:53.920Z,100.00
2022-12-31T22:04:59.848Z,100.00
2022-12-31T22:07:07.161Z,100.00
2022-12-31T22:09:33.727Z,100.00
2022-12-31T22:12:00.188Z,100.00
2022-12-31T22:14:26.633Z,100.00
2022-12-31T22:16:53.172Z,100.00
2022-12-31T22:19:19.629Z,100.00
2022-12-31T22:21:46.246Z,100.00
2022-12-31T22:24:12.797Z,100.00
2022-12-31T22:26:44.554Z,100.00
2022-12-31T22:29:12.947Z,100.00
2022-12-31T22:31:39.498Z,100.00
2022-12-31T22:34:06.040Z,100.00
2022-12-31T22:36:32.590Z,100.00
2022-12-31T22:38:59.109Z,100.00
2022-12-31T22:41:26.708Z,100.00
2022-12-31T22:44:02.277Z,100.00
2022-12-31T22:46:30.065Z,100.00
2022-12-31T22:48:58.740Z,100.00
2022-12-31T22:51:54.985Z,100.00
2022-12-31T22:54:12.804Z,100.00
2022-12-31T22:56:39.377Z,100.00
2022-12-31T22:59:05.952Z,100.00
2022-12-31T23:18:21.454Z,100.00
2022-12-31T23:21:06.787Z,100.00
2022-12-31T23:23:33.292Z,100.00
2022-12-31T23:26:00.657Z,100.00
2022-12-31T23:28:27.273Z,100.00
2022-12-31T23:30:54.059Z,100.00
2022-12-31T23:33:24.002Z,100.00
2022-12-31T23:36:01.038Z,100.00
2022-12-31T23:38:27.420Z,100.00
2022-12-31T23:40:53.953Z,100.00
2022-12-31T23:43:21.608Z,100.00
2022-12-31T23:45:49.298Z,100.00
2022-12-31T23:48:15.765Z,100.00
2022-12-31T23:50:45.392Z,100.00
2022-12-31T23:53:15.779Z,100.00
2022-12-31T23:55:42.397Z,100.00
2022-12-31T23:58:08.959Z,100.00
